createdAt,value
2018-05-11T00:00:07.891Z,71.63
2018-05-11T00:02:34.384Z,72.00
2018-05-11T00:05:01.656Z,71.72
2018-05-11T00:07:28.791Z,71.58
2018-05-11T00:09:56.907Z,71.44
2018-05-11T00:12:23.489Z,71.85
2018-05-11T00:14:49.903Z,71.92
2018-05-11T00:17:16.298Z,72.38
2018-05-11T00:19:42.679Z,72.43
2018-05-11T00:22:09.068Z,72.87
2018-05-11T00:24:35.530Z,72.71
2018-05-11T00:27:02.062Z,72.63
2018-05-11T00:29:28.769Z,73.13
2018-05-11T00:31:55.173Z,73.46
2018-05-11T00:34:22.385Z,73.29
2018-05-11T00:36:48.810Z,72.39
2018-05-11T00:39:15.323Z,73.29
2018-05-11T00:41:41.802Z,73.18
2018-05-11T00:44:08.339Z,73.67
2018-05-11T00:46:34.741Z,74.39
2018-05-11T00:49:01.162Z,74.24
2018-05-11T00:51:27.631Z,75.08
2018-05-11T00:53:54.037Z,75.12
2018-05-11T00:56:20.423Z,75.51
2018-05-11T00:58:47.020Z,75.72
2018-05-11T01:01:13.397Z,75.69
2018-05-11T01:03:40.685Z,74.49
2018-05-11T01:06:07.938Z,75.15
2018-05-11T01:08:34.443Z,74.86
2018-05-11T01:11:01.686Z,75.66
2018-05-11T01:13:28.293Z,75.87
2018-05-11T01:15:54.717Z,73.57
2018-05-11T01:18:21.281Z,72.44
2018-05-11T01:20:47.643Z,72.52
2018-05-11T01:23:14.829Z,73.49
2018-05-11T01:25:41.454Z,73.68
2018-05-11T01:28:08.189Z,73.62
2018-05-11T01:30:34.935Z,73.63
2018-05-11T01:33:01.402Z,73.80
2018-05-11T01:35:27.914Z,74.74
2018-05-11T01:37:54.342Z,75.69
2018-05-11T01:40:21.062Z,76.52
2018-05-11T01:42:47.449Z,76.87
2018-05-11T01:45:13.989Z,77.21
2018-05-11T01:47:40.389Z,77.51
2018-05-11T01:50:06.810Z,77.58
2018-05-11T01:52:33.258Z,78.17
2018-05-11T01:54:59.734Z,78.28
2018-05-11T01:57:26.885Z,78.94
2018-05-11T01:59:54.095Z,78.52
2018-05-11T02:02:20.472Z,78.76
2018-05-11T02:04:47.737Z,78.95
2018-05-11T02:07:14.963Z,78.58
2018-05-11T02:09:41.393Z,78.94
2018-05-11T02:12:07.798Z,79.18
2018-05-11T02:14:34.200Z,79.46
2018-05-11T02:17:00.620Z,79.54
2018-05-11T02:19:27.773Z,79.53
2018-05-11T02:21:54.207Z,79.98
2018-05-11T02:24:20.638Z,80.02
2018-05-11T02:26:47.903Z,80.26
2018-05-11T02:29:14.398Z,80.45
2018-05-11T02:31:40.811Z,80.65
2018-05-11T02:34:07.242Z,80.57
2018-05-11T02:36:33.716Z,80.01
2018-05-11T02:39:00.667Z,80.60
2018-05-11T02:41:27.174Z,81.04
2018-05-11T02:43:53.749Z,81.60
2018-05-11T02:46:20.245Z,81.93
2018-05-11T02:48:46.721Z,81.95
2018-05-11T02:51:13.172Z,82.12
2018-05-11T02:53:39.617Z,82.43
2018-05-11T02:56:06.829Z,82.74
2018-05-11T02:58:33.250Z,82.82
2018-05-11T03:01:00.381Z,83.15
2018-05-11T03:03:26.848Z,83.36
2018-05-11T03:05:53.267Z,83.37
2018-05-11T03:08:20.449Z,83.70
2018-05-11T03:10:46.887Z,83.95
2018-05-11T03:13:13.325Z,83.92
2018-05-11T03:15:39.847Z,83.69
2018-05-11T03:18:06.362Z,83.59
2018-05-11T03:20:32.830Z,83.76
2018-05-11T03:22:59.337Z,84.22
2018-05-11T03:25:25.792Z,84.19
2018-05-11T03:27:52.229Z,84.22
2018-05-11T03:30:18.786Z,84.24
2018-05-11T03:32:46.740Z,84.43
2018-05-11T03:35:13.187Z,84.33
2018-05-11T03:37:39.690Z,83.94
2018-05-11T03:40:06.123Z,83.95
2018-05-11T03:42:32.621Z,84.42
2018-05-11T03:44:59.807Z,84.36
2018-05-11T03:47:26.236Z,84.05
2018-05-11T03:49:52.680Z,84.35
2018-05-11T03:52:19.146Z,84.35
2018-05-11T03:54:45.561Z,84.39
2018-05-11T03:57:11.992Z,84.16
2018-05-11T03:59:38.431Z,83.98
2018-05-11T04:02:23.542Z,83.67
2018-05-11T04:05:09.065Z,83.83
2018-05-11T04:07:54.766Z,83.53
2018-05-11T04:10:21.291Z,83.38
2018-05-11T04:12:47.726Z,82.89
2018-05-11T04:15:14.117Z,82.42
2018-05-11T04:17:41.310Z,82.09
2018-05-11T04:20:08.005Z,82.47
2018-05-11T04:22:35.140Z,82.48
2018-05-11T04:25:02.349Z,82.25
2018-05-11T04:27:28.779Z,82.47
2018-05-11T04:29:56.071Z,81.89
2018-05-11T04:32:24.005Z,81.86
2018-05-11T04:34:51.130Z,81.68
2018-05-11T04:37:17.933Z,81.60
2018-05-11T04:39:44.722Z,81.53
2018-05-11T04:42:11.182Z,80.98
2018-05-11T04:44:38.367Z,80.39
2018-05-11T04:47:05.531Z,80.08
2018-05-11T04:49:32.021Z,80.23
2018-05-11T04:51:58.534Z,80.29
2018-05-11T04:54:24.981Z,80.36
2018-05-11T04:56:51.474Z,80.66
2018-05-11T04:59:25.223Z,79.73
2018-05-11T05:01:51.654Z,79.43
2018-05-11T05:04:18.163Z,79.16
2018-05-11T05:06:44.601Z,77.83
2018-05-11T05:09:11.032Z,76.55
2018-05-11T05:11:37.515Z,76.38
2018-05-11T05:14:04.726Z,76.18
2018-05-11T05:16:31.169Z,75.75
2018-05-11T05:18:57.959Z,75.83
2018-05-11T05:21:25.210Z,75.91
2018-05-11T05:23:53.561Z,75.35
2018-05-11T05:26:20.085Z,74.86
2018-05-11T05:28:46.499Z,74.55
2018-05-11T05:31:12.954Z,73.58
2018-05-11T05:33:39.469Z,73.00
2018-05-11T05:36:06.407Z,72.95
2018-05-11T05:38:33.090Z,72.33
2018-05-11T05:41:00.236Z,72.78
2018-05-11T05:43:26.699Z,72.64
2018-05-11T05:45:53.959Z,72.02
2018-05-11T05:48:21.133Z,71.38
2018-05-11T05:50:47.531Z,71.21
2018-05-11T05:53:14.742Z,70.45
2018-05-11T05:55:41.296Z,70.92
2018-05-11T05:58:08.478Z,69.84
2018-05-11T06:00:34.961Z,69.68
2018-05-11T06:03:01.400Z,68.92
2018-05-11T06:05:27.899Z,69.33
2018-05-11T06:07:54.280Z,68.03
2018-05-11T06:10:21.432Z,68.78
2018-05-11T06:12:48.642Z,68.73
2018-05-11T06:15:15.035Z,68.41
2018-05-11T06:17:42.553Z,67.78
2018-05-11T06:20:08.937Z,67.68
2018-05-11T06:22:35.772Z,67.90
2018-05-11T06:25:02.169Z,66.33
2018-05-11T06:27:28.647Z,66.65
2018-05-11T06:29:55.044Z,66.42
2018-05-11T06:32:21.805Z,65.96
2018-05-11T06:34:48.187Z,65.61
2018-05-11T06:37:14.913Z,65.28
2018-05-11T06:39:41.617Z,64.61
2018-05-11T06:42:08.911Z,63.15
2018-05-11T06:44:36.095Z,62.43
2018-05-11T06:47:02.613Z,62.41
2018-05-11T06:49:29.398Z,61.41
2018-05-11T06:51:55.999Z,63.57
2018-05-11T06:54:22.534Z,63.65
2018-05-11T06:56:49.771Z,61.80
2018-05-11T06:59:16.359Z,61.96
2018-05-11T07:01:42.860Z,61.12
2018-05-11T07:04:09.304Z,60.50
2018-05-11T07:06:36.446Z,59.60
2018-05-11T07:09:03.599Z,60.14
2018-05-11T07:11:31.288Z,60.18
2018-05-11T07:13:58.459Z,60.82
2018-05-11T07:16:24.967Z,61.63
2018-05-11T07:18:52.262Z,60.45
2018-05-11T07:21:18.957Z,60.35
2018-05-11T07:23:45.433Z,60.59
2018-05-11T07:26:12.650Z,59.90
2018-05-11T07:28:39.088Z,60.66
2018-05-11T07:31:05.611Z,60.55
2018-05-11T07:33:32.839Z,60.18
2018-05-11T07:36:00.818Z,60.51
2018-05-11T07:38:28.096Z,59.91
2018-05-11T07:40:54.535Z,60.08
2018-05-11T07:43:21.107Z,59.28
2018-05-11T07:45:48.214Z,58.39
2018-05-11T07:48:14.714Z,56.86
2018-05-11T07:50:41.972Z,56.65
2018-05-11T07:53:09.117Z,56.74
2018-05-11T07:55:35.682Z,56.32
2018-05-11T07:58:03.141Z,54.04
2018-05-11T08:00:30.360Z,54.44
2018-05-11T08:02:57.631Z,54.02
2018-05-11T08:05:24.298Z,53.94
2018-05-11T08:07:50.832Z,52.78
2018-05-11T08:10:17.392Z,53.55
2018-05-11T08:12:44.104Z,53.47
2018-05-11T08:15:10.586Z,54.04
2018-05-11T08:17:37.072Z,53.28
2018-05-11T08:20:03.526Z,52.76
2018-05-11T08:22:30.081Z,51.20
2018-05-11T08:24:56.624Z,50.38
2018-05-11T08:27:23.415Z,50.86
2018-05-11T08:29:51.388Z,52.56
2018-05-11T08:32:18.449Z,51.80
2018-05-11T08:34:45.127Z,50.89
2018-05-11T08:37:12.450Z,49.30
2018-05-11T08:39:39.746Z,50.63
2018-05-11T08:42:06.227Z,50.68
2018-05-11T08:44:32.973Z,51.37
2018-05-11T08:47:00.024Z,50.35
2018-05-11T08:49:26.718Z,47.93
2018-05-11T08:51:54.243Z,45.61
2018-05-11T08:54:21.133Z,44.04
2018-05-11T08:56:47.652Z,45.01
2018-05-11T08:59:14.390Z,44.49
2018-05-11T09:01:41.150Z,44.99
2018-05-11T09:04:07.961Z,44.12
2018-05-11T09:06:35.100Z,44.85
2018-05-11T09:09:01.560Z,44.17
2018-05-11T09:11:29.043Z,44.85
2018-05-11T09:13:56.715Z,45.78
2018-05-11T09:16:24.518Z,45.24
2018-05-11T09:18:51.111Z,45.89
2018-05-11T09:21:17.598Z,45.25
2018-05-11T09:23:45.301Z,47.14
2018-05-11T09:26:12.835Z,44.32
2018-05-11T09:28:39.405Z,44.40
2018-05-11T09:31:06.353Z,44.60
2018-05-11T09:33:32.750Z,45.93
2018-05-11T09:36:00.538Z,46.61
2018-05-11T09:38:27.209Z,46.11
2018-05-11T09:40:53.698Z,45.89
2018-05-11T09:43:20.164Z,46.21
2018-05-11T09:45:46.548Z,45.20
2018-05-11T09:48:13.664Z,46.09
2018-05-11T09:50:40.222Z,45.50
2018-05-11T09:53:08.189Z,45.86
2018-05-11T09:55:35.428Z,45.42
2018-05-11T09:58:01.797Z,43.94
2018-05-11T10:00:28.418Z,43.85
2018-05-11T10:02:54.914Z,44.76
2018-05-11T10:05:21.355Z,43.80
2018-05-11T10:07:47.986Z,41.32
2018-05-11T10:10:14.691Z,41.03
2018-05-11T10:12:41.159Z,40.88
2018-05-11T10:15:07.614Z,39.71
2018-05-11T10:17:34.114Z,37.71
2018-05-11T10:20:00.516Z,35.03
2018-05-11T10:22:28.271Z,34.68
2018-05-11T10:24:55.434Z,32.78
2018-05-11T10:27:22.177Z,34.16
2018-05-11T10:29:48.697Z,35.35
2018-05-11T10:32:16.173Z,35.12
2018-05-11T10:34:42.617Z,33.83
2018-05-11T10:37:09.226Z,34.08
2018-05-11T10:39:36.432Z,33.94
2018-05-11T10:42:02.862Z,34.31
2018-05-11T10:44:29.357Z,34.75
2018-05-11T10:46:55.789Z,34.72
2018-05-11T10:49:22.392Z,33.30
2018-05-11T10:51:49.682Z,34.56
2018-05-11T10:54:16.169Z,34.95
2018-05-11T10:56:42.571Z,36.38
2018-05-11T10:59:09.114Z,35.79
2018-05-11T11:01:35.632Z,36.32
2018-05-11T11:04:02.099Z,36.85
2018-05-11T11:06:28.540Z,35.89
2018-05-11T11:08:54.981Z,35.47
2018-05-11T11:11:21.453Z,35.05
2018-05-11T11:13:48.200Z,35.97
2018-05-11T11:16:14.709Z,35.21
2018-05-11T11:18:42.021Z,33.83
2018-05-11T11:21:08.460Z,33.58
2018-05-11T11:23:34.897Z,34.20
2018-05-11T11:26:01.965Z,33.52
2018-05-11T11:28:28.409Z,33.42
2018-05-11T11:30:56.671Z,33.65
2018-05-11T11:33:23.822Z,33.26
2018-05-11T11:35:51.155Z,33.21
2018-05-11T11:38:17.652Z,32.13
2018-05-11T11:40:44.115Z,31.32
2018-05-11T11:43:10.642Z,32.06
2018-05-11T11:45:37.110Z,33.03
2018-05-11T11:48:03.722Z,32.19
2018-05-11T11:50:30.255Z,31.51
2018-05-11T11:52:56.662Z,32.85
2018-05-11T11:55:23.051Z,33.17
2018-05-11T11:57:49.595Z,32.95
2018-05-11T12:00:16.872Z,32.54
2018-05-11T12:02:43.348Z,31.83
2018-05-11T12:05:10.155Z,31.29
2018-05-11T12:07:36.587Z,29.89
2018-05-11T12:10:03.035Z,30.43
2018-05-11T12:12:29.748Z,30.51
2018-05-11T12:14:56.163Z,31.04
2018-05-11T12:17:24.206Z,31.08
2018-05-11T12:19:50.935Z,31.13
2018-05-11T12:22:17.352Z,30.70
2018-05-11T12:24:43.788Z,29.55
2018-05-11T12:27:10.290Z,29.93
2018-05-11T12:29:37.333Z,30.32
2018-05-11T12:32:06.129Z,30.42
2018-05-11T12:34:32.829Z,30.48
2018-05-11T12:36:59.332Z,30.60
2018-05-11T12:39:25.863Z,30.35
2018-05-11T12:41:52.296Z,30.95
2018-05-11T12:44:18.756Z,31.14
2018-05-11T12:46:45.221Z,30.66
2018-05-11T12:49:12.390Z,31.27
2018-05-11T12:51:40.153Z,32.01
2018-05-11T12:54:06.642Z,32.34
2018-05-11T12:56:33.090Z,31.72
2018-05-11T12:59:00.491Z,31.25
2018-05-11T13:01:26.968Z,30.66
2018-05-11T13:03:53.507Z,31.47
2018-05-11T13:06:20.214Z,30.66
2018-05-11T13:08:47.159Z,29.45
2018-05-11T13:11:13.881Z,29.48
2018-05-11T13:13:40.942Z,28.58
2018-05-11T13:16:07.480Z,29.81
2018-05-11T13:18:34.334Z,28.41
2018-05-11T13:21:01.729Z,25.84
2018-05-11T13:23:28.941Z,24.25
2018-05-11T13:25:55.385Z,23.48
2018-05-11T13:28:22.226Z,21.92
2018-05-11T13:30:48.874Z,21.51
2018-05-11T13:33:15.298Z,20.93
2018-05-11T13:35:42.601Z,21.28
2018-05-11T13:38:09.100Z,24.36
2018-05-11T13:40:36.420Z,27.10
2018-05-11T13:43:03.270Z,26.86
2018-05-11T13:45:29.753Z,23.68
2018-05-11T13:47:56.140Z,21.64
2018-05-11T13:50:22.607Z,20.79
2018-05-11T13:52:49.759Z,21.07
2018-05-11T13:55:17.120Z,19.82
2018-05-11T13:57:44.769Z,20.39
2018-05-11T14:00:12.196Z,19.03
2018-05-11T14:02:38.653Z,17.02
2018-05-11T14:05:05.998Z,18.38
2018-05-11T14:07:32.419Z,20.28
2018-05-11T14:09:59.740Z,18.27
2018-05-11T14:12:26.414Z,18.71
2018-05-11T14:14:52.832Z,21.50
2018-05-11T14:17:19.529Z,23.82
2018-05-11T14:19:46.874Z,25.54
2018-05-11T14:22:14.061Z,27.82
2018-05-11T14:24:40.575Z,27.62
2018-05-11T14:27:07.058Z,27.84
2018-05-11T14:29:34.753Z,28.93
2018-05-11T14:32:01.994Z,29.11
2018-05-11T14:34:28.305Z,29.78
2018-05-11T14:36:54.728Z,30.02
2018-05-11T14:39:21.300Z,30.93
2018-05-11T14:41:47.824Z,30.40
2018-05-11T14:44:15.022Z,29.49
2018-05-11T14:46:42.233Z,28.83
2018-05-11T14:49:09.704Z,29.37
2018-05-11T14:51:36.821Z,29.97
2018-05-11T14:54:03.269Z,29.96
2018-05-11T14:56:29.801Z,28.97
2018-05-11T14:58:56.631Z,29.32
2018-05-11T15:01:23.140Z,28.42
2018-05-11T15:03:49.841Z,26.81
2018-05-11T15:06:16.977Z,24.43
2018-05-11T15:08:44.260Z,23.76
2018-05-11T15:11:10.985Z,25.33
2018-05-11T15:13:37.651Z,25.69
2018-05-11T15:16:04.170Z,26.23
2018-05-11T15:18:30.641Z,26.18
2018-05-11T15:20:57.092Z,26.73
2018-05-11T15:23:23.773Z,27.96
2018-05-11T15:25:51.091Z,27.84
2018-05-11T15:28:17.699Z,28.99
2018-05-11T15:30:44.429Z,30.71
2018-05-11T15:33:11.040Z,30.75
2018-05-11T15:35:37.439Z,30.93
2018-05-11T15:38:04.578Z,32.24
2018-05-11T15:40:31.112Z,32.07
2018-05-11T15:42:57.692Z,31.22
2018-05-11T15:45:24.859Z,32.35
2018-05-11T15:47:51.486Z,32.07
2018-05-11T15:50:17.917Z,32.55
2018-05-11T15:52:44.380Z,27.13
2018-05-11T15:55:11.096Z,22.56
2018-05-11T15:57:38.304Z,20.75
2018-05-11T16:00:05.508Z,18.76
2018-05-11T16:02:32.221Z,18.40
2018-05-11T16:04:58.858Z,23.02
2018-05-11T16:07:26.022Z,24.46
2018-05-11T16:09:52.798Z,23.55
2018-05-11T16:12:20.972Z,26.17
2018-05-11T16:14:47.522Z,27.88
2018-05-11T16:17:13.936Z,29.49
2018-05-11T16:19:40.540Z,29.85
2018-05-11T16:22:07.290Z,30.41
2018-05-11T16:24:33.850Z,30.42
2018-05-11T16:27:00.567Z,26.09
2018-05-11T16:29:29.368Z,22.28
2018-05-11T16:31:56.144Z,21.43
2018-05-11T16:34:23.567Z,21.51
2018-05-11T16:36:50.207Z,21.23
2018-05-11T16:39:18.674Z,21.39
2018-05-11T16:41:45.388Z,21.04
2018-05-11T16:44:13.054Z,21.83
2018-05-11T16:46:39.525Z,24.34
2018-05-11T16:49:06.183Z,25.36
2018-05-11T16:51:32.886Z,25.26
2018-05-11T16:53:59.589Z,27.34
2018-05-11T16:56:27.002Z,26.58
2018-05-11T16:58:53.965Z,25.05
2018-05-11T17:01:20.924Z,21.36
2018-05-11T17:03:48.074Z,20.60
2018-05-11T17:06:15.567Z,21.37
2018-05-11T17:08:42.048Z,21.04
2018-05-11T17:11:08.531Z,21.22
2018-05-11T17:13:35.261Z,21.57
2018-05-11T17:16:02.447Z,22.12
2018-05-11T17:18:28.953Z,22.41
2018-05-11T17:20:56.128Z,22.84
2018-05-11T17:23:22.533Z,22.90
2018-05-11T17:25:49.003Z,23.55
2018-05-11T17:28:15.391Z,23.82
2018-05-11T17:30:42.617Z,24.85
2018-05-11T17:33:09.290Z,24.80
2018-05-11T17:35:36.528Z,24.50
2018-05-11T17:38:03.841Z,23.75
2018-05-11T17:40:30.271Z,24.65
2018-05-11T17:42:56.722Z,25.30
2018-05-11T17:45:23.183Z,26.74
2018-05-11T17:47:50.598Z,29.96
2018-05-11T17:50:17.144Z,32.90
2018-05-11T17:52:44.300Z,33.63
2018-05-11T17:55:10.777Z,34.56
2018-05-11T17:57:37.210Z,36.42
2018-05-11T18:00:03.678Z,37.42
2018-05-11T18:02:30.104Z,37.55
2018-05-11T18:04:56.498Z,37.98
2018-05-11T18:07:23.654Z,38.89
2018-05-11T18:09:50.809Z,39.97
2018-05-11T18:12:17.215Z,41.07
2018-05-11T18:14:44.452Z,41.51
2018-05-11T18:17:10.824Z,41.08
2018-05-11T18:19:37.302Z,41.73
2018-05-11T18:22:03.781Z,42.28
2018-05-11T18:24:30.179Z,42.34
2018-05-11T18:26:56.579Z,42.95
2018-05-11T18:29:22.981Z,43.66
2018-05-11T18:31:49.423Z,44.30
2018-05-11T18:34:15.965Z,44.54
2018-05-11T18:36:44.609Z,44.79
2018-05-11T18:39:11.125Z,45.31
2018-05-11T18:41:37.536Z,46.11
2018-05-11T18:44:04.083Z,46.80
2018-05-11T18:46:31.586Z,47.47
2018-05-11T18:48:58.741Z,47.73
2018-05-11T18:51:25.767Z,47.78
2018-05-11T18:53:57.235Z,48.03
2018-05-11T18:56:24.715Z,49.09
2018-05-11T18:58:51.091Z,49.22
2018-05-11T19:01:18.265Z,50.11
2018-05-11T19:03:44.800Z,50.19
2018-05-11T19:06:11.185Z,50.32
2018-05-11T19:08:37.655Z,50.72
2018-05-11T19:11:04.319Z,50.61
2018-05-11T19:13:31.161Z,50.80
2018-05-11T19:15:57.577Z,51.93
2018-05-11T19:18:24.833Z,52.01
2018-05-11T19:20:51.963Z,52.04
2018-05-11T19:23:18.686Z,52.51
2018-05-11T19:25:45.156Z,53.01
2018-05-11T19:28:12.580Z,53.24
2018-05-11T19:30:39.051Z,53.20
2018-05-11T19:33:06.887Z,53.78
2018-05-11T19:35:33.487Z,54.41
2018-05-11T19:38:00.068Z,54.27
2018-05-11T19:40:26.662Z,54.86
2018-05-11T19:42:53.041Z,54.63
2018-05-11T19:45:19.389Z,54.81
2018-05-11T19:47:46.665Z,54.78
2018-05-11T19:50:13.130Z,54.90
2018-05-11T19:52:39.630Z,55.31
2018-05-11T19:55:06.884Z,55.26
2018-05-11T19:57:34.567Z,55.76
2018-05-11T20:00:01.112Z,56.01
2018-05-11T20:02:27.651Z,56.61
2018-05-11T20:04:54.071Z,56.45
2018-05-11T20:07:20.586Z,56.56
2018-05-11T20:09:47.545Z,56.86
2018-05-11T20:12:13.976Z,56.60
2018-05-11T20:14:40.477Z,56.61
2018-05-11T20:17:07.669Z,56.94
2018-05-11T20:19:34.078Z,57.31
2018-05-11T20:22:00.562Z,56.98
2018-05-11T20:24:26.998Z,57.53
2018-05-11T20:26:54.210Z,58.24
2018-05-11T20:29:20.722Z,59.06
2018-05-11T20:31:47.874Z,59.59
2018-05-11T20:34:14.413Z,59.42
2018-05-11T20:36:40.931Z,59.85
2018-05-11T20:39:08.130Z,59.88
2018-05-11T20:41:36.259Z,60.13
2018-05-11T20:44:02.734Z,60.04
2018-05-11T20:46:29.274Z,60.50
2018-05-11T20:48:55.714Z,60.92
2018-05-11T20:51:22.193Z,61.25
2018-05-11T20:53:49.422Z,61.02
2018-05-11T20:56:16.001Z,61.12
2018-05-11T20:58:42.574Z,61.50
2018-05-11T21:01:09.857Z,61.29
2018-05-11T21:03:37.350Z,61.05
2018-05-11T21:06:03.829Z,61.83
2018-05-11T21:08:30.324Z,62.42
2018-05-11T21:10:56.814Z,62.94
2018-05-11T21:13:24.672Z,63.17
2018-05-11T21:15:52.105Z,63.32
2018-05-11T21:18:18.616Z,63.68
2018-05-11T21:20:45.180Z,63.38
2018-05-11T21:23:12.209Z,63.65
2018-05-11T21:25:38.710Z,63.73
2018-05-11T21:28:05.294Z,63.89
2018-05-11T21:30:31.809Z,64.01
2018-05-11T21:32:58.408Z,63.98
2018-05-11T21:35:25.622Z,64.23
2018-05-11T21:37:52.182Z,64.67
2018-05-11T21:40:18.819Z,64.54
2018-05-11T21:42:46.040Z,64.99
2018-05-11T21:45:12.522Z,65.18
2018-05-11T21:47:39.274Z,65.74
2018-05-11T21:50:05.815Z,65.82
2018-05-11T21:52:32.412Z,65.68
2018-05-11T21:54:59.161Z,65.64
2018-05-11T21:57:26.585Z,66.11
2018-05-11T21:59:53.050Z,66.44
2018-05-11T22:02:20.204Z,66.71
2018-05-11T22:04:47.504Z,66.97
2018-05-11T22:07:13.976Z,67.10
2018-05-11T22:09:41.199Z,66.90
2018-05-11T22:12:07.618Z,66.81
2018-05-11T22:14:34.030Z,67.25
2018-05-11T22:17:00.551Z,67.67
2018-05-11T22:19:27.670Z,67.27
2018-05-11T22:21:54.142Z,67.92
2018-05-11T22:24:20.529Z,67.87
2018-05-11T22:26:46.920Z,67.81
2018-05-11T22:29:13.483Z,67.92
2018-05-11T22:31:39.939Z,68.73
2018-05-11T22:34:06.389Z,68.69
2018-05-11T22:36:33.527Z,69.37
2018-05-11T22:39:00.104Z,69.58
2018-05-11T22:41:26.588Z,69.40
2018-05-11T22:43:53.132Z,69.12
2018-05-11T22:46:20.362Z,69.30
2018-05-11T22:48:47.269Z,69.04
2018-05-11T22:51:13.691Z,69.31
2018-05-11T22:53:40.877Z,69.60
2018-05-11T22:56:07.407Z,69.46
2018-05-11T22:58:33.842Z,69.79
2018-05-11T23:01:00.636Z,69.57
2018-05-11T23:03:28.250Z,69.42
2018-05-11T23:05:54.715Z,69.81
2018-05-11T23:08:21.935Z,70.02
2018-05-11T23:10:48.647Z,70.49
2018-05-11T23:13:15.938Z,70.83
2018-05-11T23:15:42.464Z,71.09
2018-05-11T23:18:08.922Z,71.30
2018-05-11T23:20:35.600Z,71.51
2018-05-11T23:23:02.014Z,71.96
2018-05-11T23:25:29.197Z,71.81
2018-05-11T23:27:55.650Z,72.21
2018-05-11T23:30:22.363Z,72.34
2018-05-11T23:32:48.867Z,72.36
2018-05-11T23:35:16.000Z,72.96
2018-05-11T23:37:43.881Z,73.30
2018-05-11T23:40:11.037Z,73.47
2018-05-11T23:42:38.411Z,73.84
2018-05-11T23:45:04.819Z,74.13
2018-05-11T23:47:31.249Z,73.88
2018-05-11T23:49:57.721Z,74.04
2018-05-11T23:52:24.627Z,74.22
2018-05-11T23:54:52.095Z,74.33
2018-05-11T23:57:18.759Z,74.29
2018-05-11T23:59:45.474Z,73.81
